Armington, Illinois
Current Conditions -  °F | °C
As of 2:55 AM on Monday 20 Oct 2014 (Local Time) from KAAA Reporting Station
Clear Clear  
Wind Chill: 50°   Ceiling: Unl
Heat Index: 50°   Visibility: 10mi
Dew Point: 45°   Wind: 3mph
Humidity: 84%   Direction: 200°SSW
Pressure: 29.92"   Gusts: NA
Location:  40.34°N, 89.31°W
Report Text: KAAA 200755Z AUTO 20003KT 10SM CLR 10/07 A2992 RMK AO2 T00980073
Loading
Personal Weather Stations






























Interactive Weather Map
Tropical Storm Tracking
New forecast layout! Learn more

10-Day Weather Forecast

Advertisements
Track Severe Weather on mobile